Time;durP1;ratioP1;P1;durP2;ratioP2;P2;SDS_P1;SDS_P2;PMS_P1;PMS_P2;Temp;Humidity;BMP_temperature;BMP_pressure;BME280_temperature;BME280_humidity;BME280_pressure;Samples;Min_cycle;Max_cycle;Signal;HPM_P1;HPM_P2
2024/01/02 00:00:00;;;;;;;7.35;1.88;;;8.20;99.90;;;;;;5020156;28;20025;-68
2024/01/02 00:02:25;;;;;;;14.88;1.88;;;8.20;99.90;;;;;;5021183;28;20029;-68
2024/01/02 00:04:51;;;;;;;6.68;1.33;;;8.10;99.90;;;;;;5021042;28;20034;-68
2024/01/02 00:07:16;;;;;;;5.55;1.55;;;8.00;99.90;;;;;;5020379;28;20168;-68
2024/01/02 00:09:42;;;;;;;7.25;1.35;;;7.90;99.90;;;;;;5020289;28;20061;-68
2024/01/02 00:12:08;;;;;;;7.07;2.20;;;8.00;99.90;;;;;;5021528;28;20042;-68
2024/01/02 00:14:33;;;;;;;6.40;1.52;;;8.00;99.90;;;;;;5021061;28;20018;-69
2024/01/02 00:16:59;;;;;;;11.10;1.90;;;7.90;99.90;;;;;;5020521;28;20029;-68
2024/01/02 00:19:24;;;;;;;5.78;1.48;;;7.60;99.90;;;;;;5021065;28;20038;-68
2024/01/02 00:21:51;;;;;;;8.25;1.70;;;7.70;99.90;;;;;;5018770;28;20083;-68
2024/01/02 00:24:17;;;;;;;5.50;1.15;;;7.80;99.90;;;;;;5020118;28;20060;-68
2024/01/02 00:26:42;;;;;;;6.00;1.42;;;7.90;99.90;;;;;;5020883;28;20053;-68
2024/01/02 00:29:08;;;;;;;7.47;1.50;;;7.90;99.90;;;;;;5020643;28;20025;-68
2024/01/02 00:31:34;;;;;;;10.02;1.40;;;7.90;99.90;;;;;;5019834;28;20092;-68
2024/01/02 00:33:59;;;;;;;9.35;2.88;;;7.60;99.90;;;;;;5020606;28;20030;-68
2024/01/02 00:36:25;;;;;;;3.40;1.27;;;7.70;99.90;;;;;;5019837;28;20124;-68
2024/01/02 00:38:50;;;;;;;7.78;1.17;;;7.80;99.90;;;;;;5020892;28;20109;-69
2024/01/02 00:41:16;;;;;;;4.35;1.45;;;7.70;99.90;;;;;;5020516;28;20026;-68
2024/01/02 00:43:41;;;;;;;5.57;1.63;;;7.50;99.90;;;;;;5019706;28;20038;-68
2024/01/02 00:46:07;;;;;;;8.18;1.40;;;7.40;99.90;;;;;;5020458;28;20029;-68
2024/01/02 00:48:32;;;;;;;5.32;1.50;;;7.40;99.90;;;;;;5020452;28;20026;-67
2024/01/02 00:51:00;;;;;;;8.50;1.50;;;7.40;99.90;;;;;;5019752;28;20160;-69
2024/01/02 00:53:26;;;;;;;7.30;1.50;;;7.40;99.90;;;;;;5020024;28;20072;-68
2024/01/02 00:55:52;;;;;;;8.07;1.70;;;7.50;99.90;;;;;;5020248;28;20030;-68
2024/01/02 00:58:17;;;;;;;9.57;1.50;;;7.50;99.90;;;;;;5020602;28;20029;-68
2024/01/02 01:00:43;;;;;;;4.05;1.27;;;7.60;99.90;;;;;;5019290;28;20085;-68
2024/01/02 01:03:08;;;;;;;5.50;1.17;;;7.50;99.90;;;;;;5019431;28;20121;-68
2024/01/02 01:05:34;;;;;;;8.02;1.50;;;7.50;99.90;;;;;;5020226;28;20072;-68
2024/01/02 01:07:59;;;;;;;8.57;1.40;;;7.60;99.90;;;;;;5019303;28;20018;-69
2024/01/02 01:10:25;;;;;;;10.85;1.92;;;7.60;99.90;;;;;;5018635;28;20022;-67
2024/01/02 01:12:50;;;;;;;14.10;1.75;;;7.60;99.90;;;;;;5019687;28;20026;-68
2024/01/02 01:15:16;;;;;;;7.65;1.55;;;7.60;99.90;;;;;;5020653;28;20033;-68
2024/01/02 01:17:41;;;;;;;5.85;1.70;;;7.50;99.90;;;;;;5018980;28;20037;-67
2024/01/02 01:20:08;;;;;;;9.32;1.73;;;7.20;99.90;;;;;;5020006;28;20044;-67
2024/01/02 01:22:34;;;;;;;9.63;1.40;;;7.20;99.90;;;;;;5019015;28;20033;-67
2024/01/02 01:24:59;;;;;;;5.00;1.50;;;7.20;99.90;;;;;;5018842;28;20021;-62
2024/01/02 01:27:25;;;;;;;8.20;1.45;;;7.10;99.90;;;;;;5019138;28;20053;-62
2024/01/02 01:29:50;;;;;;;8.63;1.80;;;7.10;99.90;;;;;;5018900;28;20057;-62
2024/01/02 01:32:16;;;;;;;6.95;2.15;;;7.10;99.90;;;;;;5018612;28;20053;-62
2024/01/02 01:34:41;;;;;;;5.35;1.77;;;7.20;99.90;;;;;;5018769;28;20068;-62
2024/01/02 01:37:07;;;;;;;3.55;1.80;;;7.10;99.90;;;;;;5019717;28;20022;-62
2024/01/02 01:39:33;;;;;;;6.28;1.50;;;7.00;99.90;;;;;;5018630;28;20018;-62
2024/01/02 01:41:58;;;;;;;8.35;1.75;;;7.10;99.90;;;;;;5018458;28;20021;-63
2024/01/02 01:44:24;;;;;;;9.27;2.08;;;7.00;99.90;;;;;;5018630;28;20037;-62
2024/01/02 01:46:49;;;;;;;3.38;2.05;;;7.00;99.90;;;;;;5019323;28;20030;-62
2024/01/02 01:49:16;;;;;;;10.43;1.98;;;7.00;99.90;;;;;;5018824;28;20022;-62
2024/01/02 01:51:43;;;;;;;8.45;2.08;;;7.10;99.90;;;;;;5018220;28;20100;-62
2024/01/02 01:54:11;;;;;;;12.95;2.08;;;7.10;99.90;;;;;;5018378;28;20022;-62
2024/01/02 01:56:39;;;;;;;17.58;2.40;;;7.00;99.90;;;;;;5018319;28;20073;-62
2024/01/02 01:59:05;;;;;;;5.28;2.03;;;6.80;99.90;;;;;;5018977;28;20057;-62
2024/01/02 02:01:31;;;;;;;8.55;2.03;;;6.90;99.90;;;;;;5018189;28;20093;-62
2024/01/02 02:03:59;;;;;;;10.07;2.05;;;6.80;99.90;;;;;;5019103;28;20106;-62
2024/01/02 02:06:25;;;;;;;6.50;1.80;;;6.90;99.90;;;;;;5018809;28;20022;-62
2024/01/02 02:08:53;;;;;;;5.50;2.40;;;6.90;99.90;;;;;;5017962;28;20029;-62
2024/01/02 02:11:20;;;;;;;8.48;2.13;;;6.80;99.90;;;;;;5018784;28;20037;-63
2024/01/02 02:13:47;;;;;;;5.63;2.20;;;6.90;99.90;;;;;;5018291;28;20105;-62
2024/01/02 02:16:16;;;;;;;7.57;2.15;;;6.90;99.90;;;;;;5018772;28;20033;-62
2024/01/02 02:18:41;;;;;;;5.13;2.38;;;7.00;99.90;;;;;;5017882;28;20095;-62
2024/01/02 02:21:07;;;;;;;10.52;2.13;;;6.90;99.90;;;;;;5018085;28;20089;-62
2024/01/02 02:23:33;;;;;;;7.20;2.90;;;6.80;99.90;;;;;;5008586;28;20030;-63
2024/01/02 02:25:58;;;;;;;5.55;2.70;;;6.90;99.90;;;;;;4998438;28;20064;-63
2024/01/02 02:28:24;;;;;;;4.15;2.00;;;6.80;99.90;;;;;;4998534;28;20019;-63
2024/01/02 02:30:49;;;;;;;9.63;2.67;;;6.90;99.90;;;;;;4998614;28;20088;-63
2024/01/02 02:33:15;;;;;;;8.38;3.10;;;6.90;99.90;;;;;;4998541;28;20026;-63
2024/01/02 02:35:41;;;;;;;8.45;3.38;;;6.90;99.90;;;;;;4998195;28;20073;-63
2024/01/02 02:38:06;;;;;;;7.53;3.00;;;6.90;99.90;;;;;;4997898;28;20042;-63
2024/01/02 02:40:32;;;;;;;7.38;2.88;;;6.80;99.90;;;;;;4998901;28;20037;-63
2024/01/02 02:42:57;;;;;;;7.78;3.00;;;6.80;99.90;;;;;;5015035;23;20034;-71
2024/01/02 02:45:23;;;;;;;8.60;2.80;;;6.80;99.90;;;;;;5018586;28;20036;-71
2024/01/02 02:47:49;;;;;;;9.48;3.05;;;6.70;99.90;;;;;;5018348;28;20033;-71
2024/01/02 02:50:14;;;;;;;11.52;3.33;;;6.60;99.90;;;;;;5017687;28;20048;-71
2024/01/02 02:52:40;;;;;;;12.95;3.83;;;6.60;99.90;;;;;;5017551;28;20026;-71
2024/01/02 02:55:28;;;;;;;9.88;2.97;;;6.40;99.90;;;;;;5004447;28;20069;-71
2024/01/02 02:57:54;;;;;;;10.13;3.38;;;6.50;99.90;;;;;;4997574;28;20023;-71
2024/01/02 03:00:21;;;;;;;8.45;2.95;;;6.50;99.90;;;;;;4997468;28;20014;-71
2024/01/02 03:02:46;;;;;;;9.82;3.08;;;6.40;99.90;;;;;;4998424;28;20030;-71
2024/01/02 03:05:14;;;;;;;6.65;2.47;;;6.50;99.90;;;;;;4998801;28;20126;-71
2024/01/02 03:07:41;;;;;;;11.65;2.60;;;6.30;99.90;;;;;;4998406;28;20022;-71
2024/01/02 03:10:06;;;;;;;5.78;2.35;;;6.40;99.90;;;;;;4998246;28;20018;-71
2024/01/02 03:12:32;;;;;;;13.30;3.53;;;6.50;99.90;;;;;;4998632;28;20030;-71
2024/01/02 03:14:58;;;;;;;5.88;2.40;;;6.60;99.90;;;;;;4997659;28;20026;-71
2024/01/02 03:17:24;;;;;;;11.30;2.55;;;6.50;99.90;;;;;;4997249;28;20026;-72
2024/01/02 03:19:49;;;;;;;7.25;2.70;;;6.50;99.90;;;;;;4998128;28;20026;-71
2024/01/02 03:22:15;;;;;;;9.30;3.30;;;6.40;99.90;;;;;;4997998;28;20037;-72
2024/01/02 03:24:41;;;;;;;10.95;2.40;;;6.50;99.90;;;;;;4997069;28;20022;-72
2024/01/02 03:27:07;;;;;;;6.70;3.00;;;6.50;99.90;;;;;;4997903;28;20026;-72
2024/01/02 03:29:32;;;;;;;6.30;2.30;;;6.50;99.90;;;;;;4997149;28;20117;-72
2024/01/02 03:31:58;;;;;;;6.60;2.60;;;6.50;99.90;;;;;;4996960;28;20022;-72
2024/01/02 03:34:23;;;;;;;4.47;2.30;;;6.40;99.90;;;;;;4996734;28;20121;-72
2024/01/02 03:36:49;;;;;;;10.55;3.38;;;6.40;99.90;;;;;;4997231;28;20033;-72
2024/01/02 03:39:15;;;;;;;7.38;2.63;;;6.30;99.90;;;;;;4998441;28;20124;-72
2024/01/02 03:41:40;;;;;;;6.22;2.53;;;6.30;99.90;;;;;;4997103;28;20069;-72
2024/01/02 03:44:07;;;;;;;4.82;2.83;;;6.50;99.90;;;;;;4997058;28;20046;-72
2024/01/02 03:46:32;;;;;;;11.52;3.45;;;6.40;99.90;;;;;;4997963;28;20029;-72
2024/01/02 03:48:58;;;;;;;2.65;1.60;;;6.30;99.90;;;;;;4996891;28;20026;-72
2024/01/02 03:51:24;;;;;;;9.65;1.90;;;6.50;99.90;;;;;;4996772;28;20027;-72
2024/01/02 03:53:49;;;;;;;10.82;2.35;;;6.50;99.90;;;;;;4997521;28;20025;-72
2024/01/02 03:56:16;;;;;;;3.50;1.70;;;6.50;99.90;;;;;;4997648;28;20034;-72
2024/01/02 03:58:42;;;;;;;4.70;1.55;;;6.40;99.90;;;;;;4996882;28;20030;-72
2024/01/02 04:01:08;;;;;;;5.00;1.38;;;6.50;99.90;;;;;;4996705;28;20026;-72
2024/01/02 04:03:34;;;;;;;3.15;1.33;;;6.40;99.90;;;;;;4997438;28;20026;-71
2024/01/02 04:06:00;;;;;;;4.55;1.48;;;6.40;99.90;;;;;;4997842;28;20101;-72
2024/01/02 04:08:25;;;;;;;4.78;1.20;;;6.50;99.90;;;;;;4996481;28;20037;-72
2024/01/02 04:10:51;;;;;;;2.03;1.10;;;6.50;99.90;;;;;;4996555;28;20022;-72
2024/01/02 04:13:16;;;;;;;3.40;1.35;;;6.50;99.90;;;;;;4996570;28;20026;-72
2024/01/02 04:15:42;;;;;;;3.00;1.38;;;6.60;99.90;;;;;;4996896;28;20073;-72
2024/01/02 04:18:08;;;;;;;5.70;1.50;;;6.60;99.90;;;;;;4996628;28;20022;-72
2024/01/02 04:20:33;;;;;;;3.72;1.33;;;6.60;99.90;;;;;;4996837;28;20060;-72
2024/01/02 04:22:59;;;;;;;3.28;1.52;;;6.60;99.90;;;;;;4997565;28;20090;-71
2024/01/02 04:25:25;;;;;;;3.25;1.30;;;6.50;99.90;;;;;;4996647;28;20046;-72
2024/01/02 04:27:55;;;;;;;1.23;0.85;;;6.50;99.90;;;;;;4996357;28;20026;-72
2024/01/02 04:30:24;;;;;;;2.88;0.82;;;6.60;99.90;;;;;;4997419;28;20023;-71
2024/01/02 04:32:50;;;;;;;2.85;1.00;;;6.60;99.90;;;;;;4997395;28;20018;-71
2024/01/02 04:35:15;;;;;;;1.65;1.10;;;6.50;99.90;;;;;;4996330;28;20028;-71
2024/01/02 04:37:42;;;;;;;3.00;1.27;;;6.50;99.90;;;;;;4997785;28;20033;-71
2024/01/02 04:40:12;;;;;;;2.25;1.33;;;6.50;99.90;;;;;;4996306;28;20076;-71
2024/01/02 04:42:38;;;;;;;5.03;1.45;;;6.50;99.90;;;;;;4997252;28;20031;-71
2024/01/02 04:45:05;;;;;;;1.52;1.20;;;6.50;99.90;;;;;;4996354;28;20102;-71
2024/01/02 04:47:31;;;;;;;9.35;1.40;;;6.50;99.90;;;;;;5000786;28;20026;-71
2024/01/02 04:49:57;;;;;;;1.83;1.05;;;6.40;99.90;;;;;;5000791;28;20019;-71
2024/01/02 04:52:23;;;;;;;4.00;1.20;;;6.50;99.90;;;;;;5001142;28;20024;-72
2024/01/02 04:54:59;;;;;;;4.15;1.55;;;6.40;99.90;;;;;;5000585;28;20102;-71
2024/01/02 04:57:26;;;;;;;2.30;1.30;;;6.50;99.90;;;;;;5000638;28;20037;-72
2024/01/02 04:59:51;;;;;;;1.10;0.88;;;6.50;99.90;;;;;;5000721;28;20066;-71
2024/01/02 05:02:22;;;;;;;1.60;0.90;;;6.50;99.90;;;;;;4999724;28;20100;-72
2024/01/02 05:04:48;;;;;;;4.87;1.37;;;6.50;99.90;;;;;;4999899;28;20018;-72
2024/01/02 05:07:14;;;;;;;4.15;1.20;;;6.50;99.90;;;;;;4999569;28;20286;-72
2024/01/02 05:09:39;;;;;;;1.85;1.10;;;6.40;99.90;;;;;;4999596;28;20022;-72
2024/01/02 05:12:05;;;;;;;2.10;1.10;;;6.50;99.90;;;;;;4999577;28;20042;-72
2024/01/02 05:14:30;;;;;;;7.13;1.20;;;6.50;99.90;;;;;;4999509;28;20022;-72
2024/01/02 05:16:56;;;;;;;1.10;1.00;;;6.50;99.90;;;;;;5000325;28;20109;-72
2024/01/02 05:19:21;;;;;;;13.40;2.80;;;6.40;99.90;;;;;;4999418;28;20057;-72
2024/01/02 05:21:47;;;;;;;2.53;1.55;;;6.30;99.90;;;;;;4999404;28;20027;-72
2024/01/02 05:24:12;;;;;;;1.20;0.90;;;6.40;99.90;;;;;;5000211;28;20033;-72
2024/01/02 05:26:38;;;;;;;1.27;0.80;;;6.40;99.90;;;;;;5000268;28;20027;-72
2024/01/02 05:29:03;;;;;;;7.43;1.33;;;6.50;99.90;;;;;;4999198;28;20022;-72
2024/01/02 05:31:29;;;;;;;4.07;1.27;;;6.50;99.90;;;;;;4999484;28;20026;-72
2024/01/02 05:33:54;;;;;;;1.38;1.10;;;6.50;99.90;;;;;;5000021;28;20037;-72
2024/01/02 05:36:20;;;;;;;1.98;1.13;;;6.50;99.90;;;;;;5000076;28;20034;-72
2024/01/02 05:38:45;;;;;;;2.75;1.15;;;6.50;99.90;;;;;;4999909;28;20081;-72
2024/01/02 05:41:11;;;;;;;1.83;1.00;;;6.60;99.90;;;;;;4999875;28;20046;-72
2024/01/02 05:43:36;;;;;;;1.48;1.25;;;6.50;99.90;;;;;;4999750;28;20031;-71
2024/01/02 05:46:03;;;;;;;3.70;1.00;;;6.50;99.90;;;;;;4998766;28;20065;-72
2024/01/02 05:48:29;;;;;;;2.35;0.90;;;6.50;99.90;;;;;;5000025;28;20053;-72
2024/01/02 05:50:55;;;;;;;3.65;1.35;;;6.50;99.90;;;;;;4998788;28;20022;-72
2024/01/02 05:53:20;;;;;;;1.90;1.00;;;6.60;99.90;;;;;;4998748;28;20033;-72
2024/01/02 05:55:46;;;;;;;2.53;0.85;;;6.50;99.90;;;;;;4998806;28;20023;-72
2024/01/02 05:58:11;;;;;;;2.03;0.82;;;6.50;99.90;;;;;;4999470;28;20072;-72
2024/01/02 06:00:37;;;;;;;2.47;1.15;;;6.60;99.90;;;;;;4999748;28;20022;-72
2024/01/02 06:03:03;;;;;;;2.10;0.80;;;6.60;99.90;;;;;;4998862;28;20026;-72
2024/01/02 06:05:28;;;;;;;1.42;1.15;;;6.60;99.90;;;;;;4998638;28;20034;-72
2024/01/02 06:07:54;;;;;;;1.10;1.00;;;6.70;99.90;;;;;;4998793;28;20027;-72
2024/01/02 06:10:19;;;;;;;1.33;1.05;;;6.60;99.90;;;;;;4999125;28;20029;-72
2024/01/02 06:12:45;;;;;;;1.45;1.05;;;6.50;99.90;;;;;;5014632;28;20034;-71
2024/01/02 06:15:13;;;;;;;2.58;1.20;;;6.60;99.90;;;;;;4998718;28;20034;-72
2024/01/02 06:17:39;;;;;;;2.42;1.67;;;6.50;99.90;;;;;;4998227;28;20041;-72
2024/01/02 06:20:05;;;;;;;1.80;1.33;;;6.50;99.90;;;;;;4999220;28;20022;-72
2024/01/02 06:22:30;;;;;;;3.17;1.27;;;6.60;99.90;;;;;;4999002;28;20109;-72
2024/01/02 06:24:56;;;;;;;4.13;1.40;;;6.50;99.90;;;;;;4999284;28;20198;-72
2024/01/02 06:27:21;;;;;;;1.77;1.30;;;6.50;99.90;;;;;;4999107;28;20030;-71
2024/01/02 06:29:47;;;;;;;3.95;1.45;;;6.70;99.90;;;;;;4998090;28;20018;-72
2024/01/02 06:32:12;;;;;;;2.65;1.33;;;6.70;99.90;;;;;;4998029;28;20018;-72
2024/01/02 06:34:38;;;;;;;3.17;1.38;;;6.70;99.90;;;;;;4998328;28;20023;-72
2024/01/02 06:37:04;;;;;;;2.03;1.30;;;6.60;99.90;;;;;;4998258;28;20026;-71
2024/01/02 06:39:29;;;;;;;5.25;1.38;;;6.70;99.90;;;;;;4999014;28;20041;-72
2024/01/02 06:41:55;;;;;;;1.17;1.08;;;6.70;99.90;;;;;;4998016;28;20026;-72
2024/01/02 06:44:21;;;;;;;2.17;1.25;;;6.70;99.90;;;;;;4999042;28;20034;-72
2024/01/02 06:46:46;;;;;;;1.30;1.20;;;6.80;99.90;;;;;;4999161;28;20100;-74
2024/01/02 06:49:12;;;;;;;2.05;1.35;;;6.80;99.90;;;;;;4997759;28;20049;-72
2024/01/02 06:51:37;;;;;;;1.00;0.90;;;6.80;99.90;;;;;;4998644;28;20041;-72
2024/01/02 06:54:03;;;;;;;2.78;1.35;;;6.90;99.90;;;;;;4998525;28;20053;-72
2024/01/02 06:56:28;;;;;;;2.08;1.05;;;6.90;99.90;;;;;;5013103;28;20121;-72
2024/01/02 06:58:54;;;;;;;1.33;0.95;;;6.90;99.90;;;;;;4998427;28;20109;-71
2024/01/02 07:01:20;;;;;;;1.85;1.42;;;6.90;99.90;;;;;;4998491;28;20038;-71
2024/01/02 07:03:45;;;;;;;2.60;1.40;;;6.90;99.90;;;;;;4998823;28;20093;-72
2024/01/02 07:06:11;;;;;;;1.70;1.10;;;6.90;99.90;;;;;;4997474;28;20027;-72
2024/01/02 07:08:36;;;;;;;0.85;0.77;;;6.90;99.90;;;;;;4998060;28;20046;-71
2024/01/02 07:11:03;;;;;;;1.08;0.88;;;6.90;99.90;;;;;;4998373;28;20110;-72
2024/01/02 07:13:28;;;;;;;1.73;1.30;;;7.00;99.90;;;;;;4997763;28;20096;-72
2024/01/02 07:15:54;;;;;;;1.23;0.80;;;7.00;99.90;;;;;;4997304;28;20027;-72
2024/01/02 07:18:19;;;;;;;2.67;1.27;;;7.10;99.90;;;;;;4998050;28;20094;-72
2024/01/02 07:20:45;;;;;;;3.28;0.93;;;7.00;99.90;;;;;;4998636;28;20041;-72
2024/01/02 07:23:10;;;;;;;1.73;0.93;;;7.00;99.90;;;;;;4998360;28;20022;-72
2024/01/02 07:25:36;;;;;;;1.08;0.73;;;7.10;99.90;;;;;;4998558;28;20041;-72
2024/01/02 07:28:02;;;;;;;0.57;0.57;;;7.20;99.90;;;;;;4997131;28;20023;-72
2024/01/02 07:30:27;;;;;;;1.05;0.40;;;7.20;99.90;;;;;;4997811;28;20039;-72
2024/01/02 07:32:53;;;;;;;2.22;0.50;;;7.10;99.90;;;;;;4998880;28;20018;-72
2024/01/02 07:35:18;;;;;;;0.57;0.50;;;7.20;99.90;;;;;;4997812;28;20022;-72
2024/01/02 07:37:44;;;;;;;0.43;0.40;;;7.30;99.90;;;;;;4997734;28;20134;-72
2024/01/02 07:40:10;;;;;;;0.30;0.30;;;7.30;99.90;;;;;;4998022;28;20022;-72
2024/01/02 07:42:36;;;;;;;0.52;0.40;;;7.30;99.90;;;;;;4997996;28;20029;-72
2024/01/02 07:45:01;;;;;;;0.45;0.30;;;7.40;99.90;;;;;;4997174;28;20034;-72
2024/01/02 07:47:27;;;;;;;0.60;0.38;;;7.40;99.90;;;;;;4997027;28;20027;-72
2024/01/02 07:49:53;;;;;;;0.47;0.30;;;7.40;99.90;;;;;;4997783;28;20022;-72
2024/01/02 07:52:19;;;;;;;0.70;0.40;;;7.40;99.90;;;;;;4997709;28;20021;-73
2024/01/02 07:54:44;;;;;;;0.40;0.32;;;7.50;99.90;;;;;;4996723;28;20027;-71
2024/01/02 07:57:10;;;;;;;1.20;0.45;;;7.50;99.90;;;;;;4997023;28;20037;-71
2024/01/02 07:59:36;;;;;;;1.35;0.57;;;7.50;99.90;;;;;;4997180;28;20030;-71
2024/01/02 08:02:01;;;;;;;0.52;0.40;;;7.50;99.90;;;;;;4996589;28;20135;-72
2024/01/02 08:04:29;;;;;;;0.85;0.50;;;7.50;99.90;;;;;;4997109;28;20034;-71
2024/01/02 08:06:57;;;;;;;1.45;0.68;;;7.60;99.90;;;;;;4997567;28;20056;-72
2024/01/02 08:09:22;;;;;;;2.60;1.02;;;7.50;99.90;;;;;;4997403;28;20026;-72
2024/01/02 08:11:48;;;;;;;0.73;0.63;;;7.50;99.90;;;;;;4996936;28;20042;-71
2024/01/02 08:14:14;;;;;;;0.57;0.50;;;7.50;99.90;;;;;;4997271;28;20026;-72
2024/01/02 08:16:40;;;;;;;3.63;0.93;;;7.50;99.90;;;;;;4998108;28;20057;-71
2024/01/02 08:19:07;;;;;;;0.88;0.70;;;7.50;99.90;;;;;;4996533;28;20125;-71
2024/01/02 08:21:33;;;;;;;1.20;1.08;;;7.60;99.90;;;;;;5000090;28;20022;-72
2024/01/02 08:23:59;;;;;;;0.70;0.68;;;7.50;99.90;;;;;;5000487;28;20031;-72
2024/01/02 08:26:24;;;;;;;1.80;0.85;;;7.60;99.90;;;;;;5001481;28;20045;-72
2024/01/02 08:28:50;;;;;;;1.48;0.88;;;7.60;99.90;;;;;;5001826;28;20014;-72
2024/01/02 08:31:15;;;;;;;1.48;0.77;;;7.60;99.90;;;;;;5001225;28;20034;-72
2024/01/02 08:33:41;;;;;;;1.33;0.70;;;7.70;99.90;;;;;;5001351;28;20034;-72
2024/01/02 08:36:09;;;;;;;1.30;0.52;;;7.80;99.90;;;;;;5000603;28;20026;-72
2024/01/02 08:38:35;;;;;;;1.92;0.40;;;7.90;99.90;;;;;;5001028;28;20105;-72
2024/01/02 08:41:00;;;;;;;2.08;0.60;;;8.00;99.90;;;;;;5001097;28;20049;-72
2024/01/02 08:43:26;;;;;;;0.65;0.38;;;8.00;99.90;;;;;;5000862;28;20080;-72
2024/01/02 08:45:51;;;;;;;0.75;0.43;;;8.10;99.90;;;;;;5000809;28;20110;-72
2024/01/02 08:48:17;;;;;;;2.05;0.50;;;8.10;99.90;;;;;;5000486;28;20038;-72
2024/01/02 08:50:43;;;;;;;0.50;0.50;;;8.10;99.90;;;;;;5000493;28;20026;-73
2024/01/02 08:53:12;;;;;;;1.38;0.65;;;8.10;99.90;;;;;;5025762;23;20050;-67
2024/01/02 08:55:38;;;;;;;0.50;0.50;;;8.20;99.90;;;;;;5000840;28;20049;-69
2024/01/02 08:58:04;;;;;;;0.60;0.40;;;8.10;99.90;;;;;;4998853;28;20018;-70
2024/01/02 09:00:30;;;;;;;0.73;0.32;;;8.20;99.90;;;;;;4999591;28;20113;-69
2024/01/02 09:02:55;;;;;;;0.63;0.40;;;8.30;99.90;;;;;;5016081;28;20126;-69
2024/01/02 09:05:21;;;;;;;0.55;0.47;;;8.40;99.90;;;;;;4999620;28;20022;-69
2024/01/02 09:07:46;;;;;;;1.85;0.45;;;8.40;99.90;;;;;;5000532;28;20037;-70
2024/01/02 09:10:13;;;;;;;2.10;0.40;;;8.40;99.90;;;;;;5016089;28;20014;-70
2024/01/02 09:12:39;;;;;;;0.60;0.40;;;8.50;99.90;;;;;;5000704;28;20022;-69
2024/01/02 09:15:06;;;;;;;0.47;0.40;;;8.50;99.90;;;;;;5016347;28;20066;-69
2024/01/02 09:17:32;;;;;;;0.95;0.43;;;8.50;99.90;;;;;;5000512;28;20085;-69
2024/01/02 09:19:57;;;;;;;1.75;0.60;;;8.60;99.90;;;;;;5015935;28;20037;-69
2024/01/02 09:22:23;;;;;;;1.50;0.40;;;8.60;99.90;;;;;;4999465;28;20029;-70
2024/01/02 09:24:51;;;;;;;1.55;0.70;;;8.70;99.90;;;;;;5000182;28;20061;-69
2024/01/02 09:27:18;;;;;;;0.80;0.70;;;8.70;99.90;;;;;;4999272;28;20034;-69
2024/01/02 09:29:44;;;;;;;0.90;0.52;;;8.80;99.90;;;;;;4999288;28;20029;-70
2024/01/02 09:32:10;;;;;;;0.73;0.55;;;8.70;99.90;;;;;;4999564;28;20022;-70
2024/01/02 09:34:37;;;;;;;1.35;0.65;;;8.70;99.90;;;;;;5015500;28;20046;-70
2024/01/02 09:37:04;;;;;;;1.25;0.40;;;8.70;99.90;;;;;;4999436;28;20026;-70
2024/01/02 09:39:30;;;;;;;0.20;0.10;;;8.80;99.90;;;;;;5000299;28;20030;-70
2024/01/02 09:42:33;;;;;;;1.52;0.70;;;8.80;99.90;;;;;;5015277;28;20160;-70
2024/01/02 09:45:36;;;;;;;1.60;0.20;;;8.90;99.90;;;;;;5015383;28;20045;-70
2024/01/02 09:48:26;;;;;;;4.68;0.57;;;9.00;99.90;;;;;;4969708;28;20113;-70
2024/01/02 09:50:57;;;;;;;0.30;0.22;;;9.00;99.90;;;;;;5016069;28;20045;-70
2024/01/02 09:53:29;;;;;;;0.45;0.20;;;9.10;99.90;;;;;;4999665;28;20042;-69
2024/01/02 09:56:09;;;;;;;0.20;0.10;;;9.10;99.90;;;;;;4999974;28;20026;-70
2024/01/02 09:58:48;;;;;;;0.80;0.20;;;9.20;99.90;;;;;;4999755;28;20022;-70
2024/01/02 10:01:28;;;;;;;0.08;0.08;;;9.30;99.90;;;;;;4999846;28;20026;-70
2024/01/02 10:04:28;;;;;;;3.10;0.17;;;9.30;99.90;;;;;;5015104;28;20022;-70
2024/01/02 10:07:04;;;;;;;1.27;0.15;;;9.30;99.90;;;;;;4999410;28;20030;-70
2024/01/02 10:09:51;;;;;;;0.55;0.22;;;9.30;99.90;;;;;;4999480;28;20029;-70
2024/01/02 10:12:43;;;;;;;0.13;0.10;;;9.30;99.90;;;;;;5015961;28;20019;-70
2024/01/02 10:15:31;;;;;;;0.00;0.00;;;9.40;99.90;;;;;;4939884;29;20111;-69
2024/01/02 10:18:05;;;;;;;0.40;0.40;;;9.40;99.90;;;;;;4939803;29;20035;-70
2024/01/02 10:20:47;;;;;;;1.08;0.28;;;9.40;99.90;;;;;;4939984;29;20071;-70
2024/01/02 10:23:39;;;;;;;0.10;0.03;;;9.40;99.90;;;;;;4924344;29;20027;-69
2024/01/02 10:26:07;;;;;;;0.30;0.10;;;9.50;99.90;;;;;;4923861;29;20134;-69
2024/01/02 10:28:35;;;;;;;0.00;0.00;;;9.50;99.90;;;;;;4923808;29;20023;-69
2024/01/02 10:31:14;;;;;;;0.22;0.10;;;9.50;99.90;;;;;;4939641;29;20034;-69
2024/01/02 10:33:42;;;;;;;0.30;0.20;;;9.60;99.90;;;;;;4923758;29;20095;-69
2024/01/02 10:36:11;;;;;;;0.10;0.10;;;9.60;99.90;;;;;;4939408;29;20039;-69
2024/01/02 10:38:57;;;;;;;0.10;0.10;;;9.60;99.90;;;;;;4939616;29;20031;-69
2024/01/02 10:41:33;;;;;;;2.10;0.10;;;9.60;99.90;;;;;;4939649;29;20035;-69
2024/01/02 10:44:11;;;;;;;0.43;0.10;;;9.70;99.90;;;;;;4922775;29;20052;-69
2024/01/02 10:46:49;;;;;;;0.20;0.10;;;9.70;99.90;;;;;;4939463;29;20118;-69
2024/01/02 10:49:36;;;;;;;0.28;0.10;;;9.70;99.90;;;;;;4939471;29;20051;-69
2024/01/02 10:52:13;;;;;;;0.10;0.10;;;9.80;99.90;;;;;;4971795;28;20110;-69
2024/01/02 10:55:05;;;;;;;0.10;0.10;;;9.90;99.90;;;;;;4998224;28;20038;-69
2024/01/02 10:57:45;;;;;;;2.70;0.10;;;9.90;99.90;;;;;;5014112;28;20072;-69
2024/01/02 11:00:22;;;;;;;0.10;0.10;;;10.00;99.90;;;;;;4997542;28;20034;-70
2024/01/02 11:03:09;;;;;;;1.08;0.15;;;10.00;99.90;;;;;;4999048;28;20042;-70
2024/01/02 11:05:38;;;;;;;0.43;0.30;;;10.10;99.90;;;;;;4998454;28;20150;-70
2024/01/02 11:08:16;;;;;;;0.08;0.08;;;10.10;99.90;;;;;;4998536;28;20057;-70
2024/01/02 11:11:00;;;;;;;0.10;0.10;;;10.10;99.90;;;;;;5013910;28;20026;-70
2024/01/02 11:13:27;;;;;;;0.30;0.20;;;10.20;99.90;;;;;;4998312;28;20026;-70
2024/01/02 11:16:15;;;;;;;0.10;0.10;;;10.30;99.90;;;;;;5014379;28;20022;-70
2024/01/02 11:18:44;;;;;;;0.98;0.55;;;10.30;99.90;;;;;;4998028;28;20037;-70
2024/01/02 11:21:34;;;;;;;0.10;0.10;;;10.40;99.90;;;;;;5014510;28;20030;-70
2024/01/02 11:24:03;;;;;;;0.75;0.20;;;10.40;99.90;;;;;;4997245;28;20038;-70
2024/01/02 11:26:40;;;;;;;0.10;0.10;;;10.40;99.90;;;;;;4997133;28;20121;-69
2024/01/02 11:29:13;;;;;;;0.08;0.08;;;10.40;99.90;;;;;;4998326;28;20022;-70
2024/01/02 11:31:41;;;;;;;0.10;0.10;;;10.40;99.90;;;;;;4998053;28;20022;-70
2024/01/02 11:34:34;;;;;;;0.20;0.20;;;10.40;99.90;;;;;;4998323;28;20022;-70
2024/01/02 11:37:24;;;;;;;0.10;0.10;;;10.40;99.90;;;;;;4998110;28;20150;-70
2024/01/02 11:39:59;;;;;;;0.10;0.10;;;10.30;99.90;;;;;;4997110;28;20022;-69
2024/01/02 11:42:41;;;;;;;0.00;0.00;;;10.30;99.90;;;;;;5013913;28;20022;-68
2024/01/02 11:45:12;;;;;;;0.10;0.10;;;10.30;99.90;;;;;;4997741;28;20026;-68
2024/01/02 11:47:53;;;;;;;0.40;0.20;;;10.20;99.90;;;;;;4997971;28;20113;-69
2024/01/02 11:50:20;;;;;;;0.30;0.25;;;10.20;99.90;;;;;;4997769;28;20062;-69
2024/01/02 11:53:00;;;;;;;2.55;0.20;;;10.20;99.90;;;;;;5013478;28;20105;-69
2024/01/02 11:55:33;;;;;;;0.10;0.10;;;10.20;99.90;;;;;;4997270;28;20038;-69
2024/01/02 11:58:16;;;;;;;0.05;0.00;;;10.20;99.90;;;;;;5013223;28;20037;-70
2024/01/02 12:01:13;;;;;;;0.28;0.10;;;10.20;99.90;;;;;;4997744;28;20052;-69
2024/01/02 12:04:25;;;;;;;0.05;0.05;;;10.20;99.90;;;;;;4997586;28;20033;-69
2024/01/02 12:07:10;;;;;;;4.18;0.25;;;10.20;99.90;;;;;;4997723;28;20076;-69
2024/01/02 12:09:41;;;;;;;0.00;0.00;;;10.20;99.90;;;;;;4997869;28;20022;-70
2024/01/02 12:12:26;;;;;;;0.00;0.00;;;10.20;99.90;;;;;;4997576;28;20090;-69
2024/01/02 12:15:07;;;;;;;1.00;0.03;;;10.20;99.90;;;;;;4997651;28;20049;-70
2024/01/02 12:17:41;;;;;;;0.10;0.10;;;10.20;99.90;;;;;;5013295;28;20026;-70
2024/01/02 12:20:09;;;;;;;0.20;0.10;;;10.20;99.90;;;;;;4996770;28;20046;-70
2024/01/02 12:22:36;;;;;;;0.10;0.10;;;10.20;99.90;;;;;;5013635;28;20030;-69
2024/01/02 12:25:06;;;;;;;0.10;0.10;;;10.20;99.90;;;;;;5012871;28;20030;-69
2024/01/02 12:27:33;;;;;;;2.00;0.13;;;10.20;99.90;;;;;;4997618;28;20054;-69
2024/01/02 12:30:06;;;;;;;0.10;0.10;;;10.10;99.90;;;;;;4997705;28;20113;-69
2024/01/02 12:32:56;;;;;;;0.30;0.10;;;10.10;99.90;;;;;;4997678;28;20053;-69
2024/01/02 12:35:35;;;;;;;0.90;0.40;;;10.10;99.90;;;;;;4996709;28;20019;-70
2024/01/02 12:38:15;;;;;;;0.77;0.32;;;10.10;99.90;;;;;;4997689;28;20022;-70
2024/01/02 12:40:46;;;;;;;0.93;0.65;;;10.10;99.90;;;;;;4997349;28;20053;-70
2024/01/02 12:43:15;;;;;;;3.65;0.38;;;10.10;99.90;;;;;;5013037;28;20037;-70
2024/01/02 12:45:46;;;;;;;1.00;0.10;;;10.10;99.90;;;;;;5012723;28;20030;-70
2024/01/02 12:48:18;;;;;;;0.70;0.13;;;10.10;99.90;;;;;;4996403;28;20033;-70
2024/01/02 12:50:49;;;;;;;0.63;0.20;;;10.20;99.90;;;;;;4997496;28;20281;-70
2024/01/02 12:53:16;;;;;;;0.30;0.30;;;10.10;99.90;;;;;;4996214;28;20045;-69
2024/01/02 12:56:04;;;;;;;0.85;0.30;;;10.10;99.90;;;;;;5013482;28;20039;-70
2024/01/02 12:58:31;;;;;;;0.10;0.10;;;10.10;99.90;;;;;;4996160;28;20027;-70
2024/01/02 13:00:58;;;;;;;0.10;0.10;;;10.10;99.90;;;;;;4997743;28;20027;-70
2024/01/02 13:03:24;;;;;;;0.28;0.20;;;10.10;99.90;;;;;;4996958;28;20023;-64